WMKJ/JHB METAR and TAF weather

Enter ICAO airport designator
Station Type Date Time Source
WMKJ METAR 2019/02/16 17:00 UTC NOAA

WMKJ 161700Z VRB01KT 9999 FEW022 BKN130 26/24 Q1013


Station Type Date Time Source
WMKJ Decoded METAR 2019/02/16 17:00 UTC NOAA

Johore Bharu / Senai, Malaysia (WMKJ) 01-38N 103-40E 40M
Feb 16, 2019 - 12:00 PM EST / 2019.02.16 1700 UTC
Wind: Variable at 1 MPH (1 KT):0
Visibility: greater than 7 mile(s):0
Sky conditions: mostly cloudy
Temperature: 78 F (26 C)
Dew Point: 75 F (24 C)
Relative Humidity: 88%
Pressure (altimeter): 29.91 in. Hg (1013 hPa)
ob: WMKJ 161700Z VRB01KT 9999 FEW022 BKN130 26/24 Q1013
cycle: 17

Station Type Date Time Source
WMKJ TAF 2019/02/16 18:15 UTC NOAA

TAF TAF WMKJ 161700Z 1618/1718 34005KT 9999 FEW023
BECMG 1620/1622 VRB02KT FEW020
BECMG 1700/1702 03010KT FEW018 PROB30
TEMPO 1708/1712 5000 TSRA FEW017CB SCT020


Example: see airport list